Time;durP1;ratioP1;P1;durP2;ratioP2;P2;SDS_P1;SDS_P2;PMS_P1;PMS_P2;Temp;Humidity;BMP_temperature;BMP_pressure;BME280_temperature;BME280_humidity;BME280_pressure;Samples;Min_cycle;Max_cycle;Signal;HPM_P1;HPM_P2
2022/01/22 00:02:17;;;;;;;15.87;9.17;;;;;4.30;102980.00;;;;10447957;28;20190;-79
2022/01/22 00:07:19;;;;;;;16.00;8.70;;;;;4.30;102972.00;;;;10441369;28;20225;-79
2022/01/22 00:17:40;;;;;;;15.20;8.80;;;;;4.30;102962.00;;;;10460405;28;20197;-79
2022/01/22 00:22:43;;;;;;;11.37;8.30;;;;;4.30;102969.00;;;;10451524;28;20189;-79
2022/01/22 00:27:47;;;;;;;13.70;9.50;;;;;4.30;102969.00;;;;10469687;28;20650;-79
2022/01/22 00:32:50;;;;;;;14.33;8.67;;;;;4.30;102960.00;;;;10439273;28;20703;-78
2022/01/22 00:37:53;;;;;;;15.87;9.33;;;;;4.30;102952.00;;;;10438109;28;20662;-78
2022/01/22 00:42:55;;;;;;;13.43;8.80;;;;;4.30;102950.00;;;;10433646;28;20209;-78
2022/01/22 00:47:57;;;;;;;17.47;8.60;;;;;4.30;102939.00;;;;10421609;28;20767;-79
2022/01/22 00:52:59;;;;;;;11.30;8.43;;;;;4.30;102934.00;;;;10410966;28;20275;-79
2022/01/22 00:58:02;;;;;;;16.57;9.27;;;;;4.30;102931.00;;;;10447474;28;20186;-79
2022/01/22 01:03:05;;;;;;;12.33;9.17;;;;;4.40;102928.00;;;;10463526;28;20273;-78
2022/01/22 01:08:07;;;;;;;16.77;10.60;;;;;4.40;102918.00;;;;10438693;28;20214;-78
2022/01/22 01:13:09;;;;;;;11.13;8.87;;;;;4.40;102919.00;;;;10435262;28;20917;-78
2022/01/22 01:34:09;;;;;;;16.27;10.33;;;;;4.40;102925.00;;;;10430547;28;20689;-79
2022/01/22 01:39:15;;;;;;;14.53;9.60;;;;;4.40;102928.00;;;;10462062;28;20289;-79
2022/01/22 01:44:18;;;;;;;13.53;10.33;;;;;4.40;102930.00;;;;10461404;28;20270;-78
2022/01/22 01:49:43;;;;;;;15.63;10.23;;;;;4.40;102935.00;;;;10458180;28;20236;-79
2022/01/22 01:55:16;;;;;;;15.07;10.27;;;;;4.40;102943.00;;;;10444595;28;20693;-79
2022/01/22 02:00:22;;;;;;;18.67;11.80;;;;;4.40;102945.00;;;;10437281;28;20225;-78
2022/01/22 02:05:31;;;;;;;12.80;10.63;;;;;4.40;102950.00;;;;10444355;28;20618;-77
2022/01/22 02:10:38;;;;;;;16.40;10.90;;;;;4.40;102944.00;;;;10466141;28;20580;-77
2022/01/22 02:26:33;;;;;;;18.67;12.17;;;;;4.40;102938.00;;;;10443952;28;20672;-78
2022/01/22 02:32:02;;;;;;;17.07;12.07;;;;;4.40;102940.00;;;;10474621;28;20204;-77
2022/01/22 02:37:03;;;;;;;18.63;12.20;;;;;4.50;102929.00;;;;10442809;28;20194;-78
2022/01/22 02:42:06;;;;;;;17.13;14.00;;;;;4.50;102924.00;;;;10443394;28;20209;-77
2022/01/22 02:47:09;;;;;;;20.03;13.80;;;;;4.50;102933.00;;;;10426614;28;20221;-78
2022/01/22 02:52:12;;;;;;;19.97;13.27;;;;;4.50;102939.00;;;;10434865;28;20293;-77
2022/01/22 02:57:18;;;;;;;18.43;14.53;;;;;4.50;102938.00;;;;10484389;28;20197;-77
2022/01/22 03:02:27;;;;;;;22.70;14.50;;;;;4.50;102941.00;;;;10447582;28;20193;-78
2022/01/22 03:07:29;;;;;;;21.60;14.13;;;;;4.50;102943.00;;;;10462234;28;20261;-78
2022/01/22 03:27:50;;;;;;;21.57;15.00;;;;;4.50;102931.00;;;;10442929;28;20186;-77
2022/01/22 03:32:55;;;;;;;19.27;14.50;;;;;4.50;102931.00;;;;10471363;28;20208;-77
2022/01/22 03:37:58;;;;;;;23.33;15.30;;;;;4.50;102941.00;;;;10461063;28;20201;-77
2022/01/22 03:43:02;;;;;;;23.50;15.47;;;;;4.50;102943.00;;;;10459096;28;20225;-77
2022/01/22 03:48:05;;;;;;;23.17;15.43;;;;;4.50;102942.00;;;;10458419;28;20206;-77
2022/01/22 03:53:07;;;;;;;23.07;15.83;;;;;4.50;102938.00;;;;10455986;28;20206;-77
2022/01/22 03:58:09;;;;;;;26.33;16.47;;;;;4.50;102934.00;;;;10448607;28;20204;-77
2022/01/22 04:03:32;;;;;;;25.50;16.03;;;;;4.60;102942.00;;;;10464344;28;20189;-77
2022/01/22 04:08:35;;;;;;;23.90;15.90;;;;;4.60;102934.00;;;;10481164;28;20224;-78
2022/01/22 04:13:37;;;;;;;25.80;16.97;;;;;4.60;102940.00;;;;10459059;28;20206;-77
2022/01/22 04:29:35;;;;;;;28.10;16.83;;;;;4.60;102928.00;;;;10453880;28;20608;-77
2022/01/22 04:34:37;;;;;;;30.57;18.03;;;;;4.60;102926.00;;;;10439054;28;20570;-77
2022/01/22 04:39:39;;;;;;;26.07;18.47;;;;;4.60;102922.00;;;;10443083;28;20201;-77
2022/01/22 04:44:54;;;;;;;30.00;20.10;;;;;4.60;102927.00;;;;10450905;28;20197;-77
2022/01/22 04:55:17;;;;;;;32.77;20.10;;;;;4.70;102929.00;;;;10469921;28;20213;-78
2022/01/22 05:00:19;;;;;;;32.80;20.00;;;;;4.70;102919.00;;;;10459616;28;20740;-78
2022/01/22 05:05:39;;;;;;;31.97;20.67;;;;;4.70;102923.00;;;;10440981;28;20340;-77
2022/01/22 05:10:59;;;;;;;29.73;19.47;;;;;4.70;102917.00;;;;10485301;28;20220;-78
2022/01/22 05:16:05;;;;;;;32.87;20.17;;;;;4.80;102914.00;;;;10442088;28;20285;-77
2022/01/22 05:21:12;;;;;;;35.93;21.97;;;;;4.80;102914.00;;;;10453006;28;20194;-77
2022/01/22 05:31:43;;;;;;;37.13;22.13;;;;;4.80;102916.00;;;;10436279;28;20204;-77
2022/01/22 05:36:59;;;;;;;37.53;22.33;;;;;4.80;102920.00;;;;10462016;28;20277;-77
2022/01/22 05:42:05;;;;;;;38.27;23.03;;;;;4.80;102918.00;;;;10480685;28;20209;-78
2022/01/22 05:47:07;;;;;;;33.30;21.87;;;;;4.90;102919.00;;;;10453921;28;20194;-78
2022/01/22 05:52:11;;;;;;;34.80;22.73;;;;;4.90;102923.00;;;;10500061;28;20185;-77
2022/01/22 06:02:35;;;;;;;38.50;22.37;;;;;4.90;102929.00;;;;10462254;28;20544;-78
2022/01/22 06:07:41;;;;;;;37.93;23.57;;;;;4.90;102932.00;;;;10451801;28;20255;-78
2022/01/22 06:17:58;;;;;;;40.47;24.03;;;;;4.90;102930.00;;;;10469103;28;20255;-77
2022/01/22 06:23:02;;;;;;;46.00;24.07;;;;;5.00;102934.00;;;;10427666;28;20237;-78
2022/01/22 06:28:04;;;;;;;43.73;24.80;;;;;5.00;102941.00;;;;10434700;28;20221;-78
2022/01/22 06:33:08;;;;;;;41.30;24.77;;;;;5.00;102934.00;;;;10484652;28;20668;-77
2022/01/22 06:38:10;;;;;;;43.80;24.67;;;;;5.00;102943.00;;;;10418943;28;20240;-77
2022/01/22 06:43:31;;;;;;;33.47;23.40;;;;;5.00;102945.00;;;;10429303;28;20202;-78
2022/01/22 06:48:52;;;;;;;43.50;24.77;;;;;5.10;102949.00;;;;10443457;28;20198;-78
2022/01/22 06:54:04;;;;;;;39.93;24.27;;;;;5.10;102951.00;;;;10419033;28;20717;-77
2022/01/22 06:59:11;;;;;;;37.67;23.70;;;;;5.10;102962.00;;;;10473554;28;20232;-77
2022/01/22 07:04:17;;;;;;;41.03;25.33;;;;;5.10;102943.00;;;;10422561;28;20476;-77
2022/01/22 07:09:42;;;;;;;41.57;25.07;;;;;5.10;102945.00;;;;10475568;28;20701;-77
2022/01/22 07:14:45;;;;;;;42.53;25.33;;;;;5.10;102943.00;;;;10458542;28;20202;-77
2022/01/22 07:19:52;;;;;;;48.13;25.33;;;;;5.20;102959.00;;;;10452888;28;20190;-77
2022/01/22 07:24:58;;;;;;;41.10;24.17;;;;;5.20;102968.00;;;;10469332;28;20202;-77
2022/01/22 07:30:00;;;;;;;42.60;25.63;;;;;5.20;102962.00;;;;10471735;28;20684;-78
2022/01/22 07:35:04;;;;;;;39.47;23.97;;;;;5.20;102972.00;;;;10423781;28;20652;-77
2022/01/22 07:40:09;;;;;;;37.23;24.87;;;;;5.20;102981.00;;;;10493789;28;20575;-77
2022/01/22 07:45:37;;;;;;;41.07;25.43;;;;;5.30;102974.00;;;;10451864;28;20640;-79
2022/01/22 07:50:44;;;;;;;42.03;24.60;;;;;5.30;102975.00;;;;10464463;28;20231;-77
2022/01/22 07:55:47;;;;;;;43.00;26.67;;;;;5.30;102973.00;;;;10455080;28;20202;-78
2022/01/22 08:00:49;;;;;;;43.47;25.87;;;;;5.40;102983.00;;;;10430741;28;20198;-78
2022/01/22 08:05:53;;;;;;;39.93;23.57;;;;;5.40;102982.00;;;;10505184;28;20216;-78
2022/01/22 08:11:13;;;;;;;41.63;26.27;;;;;5.40;102988.00;;;;10455393;28;20209;-78
2022/01/22 08:16:16;;;;;;;44.00;25.70;;;;;5.50;102985.00;;;;10438805;28;20655;-77
2022/01/22 08:21:18;;;;;;;41.83;24.90;;;;;5.50;102981.00;;;;10447996;28;20193;-77
2022/01/22 08:26:45;;;;;;;40.70;24.27;;;;;5.60;102985.00;;;;10468503;28;20267;-78
2022/01/22 08:32:06;;;;;;;38.03;24.10;;;;;5.60;102991.00;;;;10464419;28;20200;-77
2022/01/22 08:37:11;;;;;;;34.97;23.93;;;;;5.70;103001.00;;;;10456348;28;20209;-77
2022/01/22 08:42:14;;;;;;;38.83;24.07;;;;;5.70;103010.00;;;;10457236;28;20197;-77
2022/01/22 08:47:17;;;;;;;39.17;23.13;;;;;5.80;103004.00;;;;10463298;28;20197;-78
2022/01/22 08:52:28;;;;;;;32.83;23.10;;;;;5.80;103017.00;;;;10440435;28;20201;-78
2022/01/22 08:57:30;;;;;;;38.83;24.20;;;;;5.90;103019.00;;;;10441429;28;20190;-78
2022/01/22 09:04:45;;;;;;;40.90;24.83;;;;;6.00;103012.00;;;;10471078;28;21106;-78
2022/01/22 09:10:06;;;;;;;36.53;22.07;;;;;6.10;103021.00;;;;10435280;28;20214;-78
2022/01/22 09:15:14;;;;;;;38.27;24.53;;;;;6.20;103029.00;;;;10430111;28;20834;-78
2022/01/22 09:25:45;;;;;;;39.23;23.43;;;;;6.30;103029.00;;;;10419336;28;21834;-78
2022/01/22 09:30:49;;;;;;;35.30;22.73;;;;;6.40;103030.00;;;;10425229;28;20191;-78
2022/01/22 09:35:51;;;;;;;35.93;23.40;;;;;6.40;103037.00;;;;10435505;28;20191;-78
2022/01/22 09:41:14;;;;;;;39.67;22.67;;;;;6.50;103042.00;;;;10449569;28;20612;-78
2022/01/22 09:46:46;;;;;;;40.00;24.00;;;;;6.60;103045.00;;;;10456489;28;20194;-78
2022/01/22 09:52:16;;;;;;;39.63;24.40;;;;;6.70;103048.00;;;;10404831;28;20192;-78
2022/01/22 09:57:18;;;;;;;39.00;22.33;;;;;6.70;103062.00;;;;10414074;28;20249;-78
2022/01/22 10:02:21;;;;;;;35.47;23.00;;;;;6.70;103056.00;;;;10438669;28;20222;-78
2022/01/22 10:07:33;;;;;;;37.23;23.67;;;;;6.80;103066.00;;;;10399928;28;20214;-78
2022/01/22 10:12:48;;;;;;;37.67;22.47;;;;;6.80;103071.00;;;;10431140;28;20194;-78
2022/01/22 10:18:23;;;;;;;38.87;22.53;;;;;6.90;103087.00;;;;10397385;28;20202;-78
2022/01/22 10:23:25;;;;;;;37.80;23.30;;;;;6.90;103080.00;;;;10439837;28;20209;-78
2022/01/22 10:28:37;;;;;;;38.27;23.93;;;;;6.90;103072.00;;;;10393016;28;20222;-78
2022/01/22 10:33:39;;;;;;;34.97;23.90;;;;;7.00;103078.00;;;;10424323;28;20199;-78
2022/01/22 10:39:00;;;;;;;37.37;23.73;;;;;7.10;103077.00;;;;10392427;28;20222;-78
2022/01/22 10:44:04;;;;;;;36.47;23.20;;;;;7.10;103084.00;;;;10386684;28;20234;-78
2022/01/22 10:49:21;;;;;;;35.37;21.67;;;;;7.20;103078.00;;;;10370320;28;20199;-78
2022/01/22 10:54:34;;;;;;;31.80;20.90;;;;;7.30;103086.00;;;;10358788;28;20719;-78
2022/01/22 10:59:36;;;;;;;34.63;22.10;;;;;7.20;103080.00;;;;10386371;28;20191;-78
2022/01/22 11:04:37;;;;;;;39.93;22.73;;;;;7.20;103083.00;;;;10394354;28;20215;-78
2022/01/22 11:09:40;;;;;;;32.63;21.73;;;;;7.20;103080.00;;;;10441463;28;20666;-78
2022/01/22 11:14:43;;;;;;;30.57;21.73;;;;;7.20;103067.00;;;;10427335;28;20198;-79
2022/01/22 11:19:48;;;;;;;35.37;21.53;;;;;7.20;103073.00;;;;10372588;28;20679;-78
2022/01/22 11:24:51;;;;;;;34.83;21.33;;;;;7.20;103072.00;;;;10384956;28;20213;-79
2022/01/22 11:30:06;;;;;;;32.47;22.73;;;;;7.20;103067.00;;;;10406605;28;20196;-78
2022/01/22 11:35:09;;;;;;;34.50;22.40;;;;;7.20;103064.00;;;;10375891;28;20191;-78
2022/01/22 11:40:21;;;;;;;35.10;22.77;;;;;7.20;103064.00;;;;10384742;28;20206;-78
2022/01/22 11:45:27;;;;;;;34.20;21.93;;;;;7.30;103064.00;;;;10402111;28;20199;-78
2022/01/22 11:50:28;;;;;;;33.13;21.90;;;;;7.30;103057.00;;;;10384909;28;20198;-78
2022/01/22 11:55:30;;;;;;;30.43;19.83;;;;;7.10;103059.00;;;;10384689;28;20194;-78
2022/01/22 12:00:40;;;;;;;31.77;19.33;;;;;7.00;103066.00;;;;10400814;28;20681;-78
2022/01/22 12:05:54;;;;;;;32.27;19.97;;;;;6.90;103066.00;;;;10384431;28;20199;-78
2022/01/22 12:16:04;;;;;;;31.17;20.13;;;;;6.80;103050.00;;;;10401659;28;20886;-78
2022/01/22 12:26:08;;;;;;;32.10;20.43;;;;;6.80;103039.00;;;;10382665;28;20191;-78
2022/01/22 12:31:15;;;;;;;33.83;21.87;;;;;6.90;103031.00;;;;10384469;28;20206;-78
2022/01/22 12:36:38;;;;;;;34.70;21.47;;;;;6.90;103019.00;;;;10395129;28;20194;-79
2022/01/22 12:46:43;;;;;;;42.10;23.10;;;;;6.90;103019.00;;;;10358737;28;20217;-78
2022/01/22 12:51:47;;;;;;;31.97;21.50;;;;;7.10;103001.00;;;;10372217;28;20666;-78
2022/01/22 12:56:51;;;;;;;36.00;22.60;;;;;7.10;103012.00;;;;10419667;28;20723;-79
2022/01/22 13:01:53;;;;;;;30.07;21.83;;;;;7.10;103013.00;;;;10388264;28;20217;-77
2022/01/22 13:06:56;;;;;;;32.10;22.00;;;;;7.10;103024.00;;;;10416224;28;20313;-78
2022/01/22 13:12:05;;;;;;;28.47;15.03;;;;;7.00;103019.00;;;;10421037;28;20594;-78
2022/01/22 13:17:12;;;;;;;35.57;21.13;;;;;6.90;103033.00;;;;10397434;28;20183;-78
2022/01/22 13:22:14;;;;;;;31.83;21.90;;;;;6.90;103031.00;;;;10359504;28;20269;-78
2022/01/22 13:27:18;;;;;;;32.43;23.03;;;;;6.80;103028.00;;;;10394608;28;20194;-78
2022/01/22 13:38:26;;;;;;;37.13;22.57;;;;;6.80;103026.00;;;;10341900;28;20195;-78
2022/01/22 13:48:59;;;;;;;31.10;21.13;;;;;6.80;102999.00;;;;10361147;28;20192;-79
2022/01/22 13:54:02;;;;;;;30.33;21.67;;;;;6.90;103004.00;;;;10374580;28;20199;-79
2022/01/22 13:59:16;;;;;;;30.33;21.47;;;;;6.80;103002.00;;;;10407204;28;20841;-79
2022/01/22 14:04:19;;;;;;;33.07;22.10;;;;;6.80;102997.00;;;;10390075;28;20229;-78
2022/01/22 14:09:22;;;;;;;32.20;22.27;;;;;6.80;102986.00;;;;10407949;28;20218;-78
2022/01/22 14:14:25;;;;;;;34.63;22.07;;;;;6.80;102992.00;;;;10446791;28;20657;-79
2022/01/22 14:19:28;;;;;;;31.53;20.13;;;;;6.70;102986.00;;;;10433285;28;20195;-79
2022/01/22 14:24:31;;;;;;;35.53;23.10;;;;;6.50;103004.00;;;;10389633;28;20545;-78
2022/01/22 14:29:43;;;;;;;35.63;24.00;;;;;6.40;103009.00;;;;10421509;28;20190;-79
2022/01/22 14:34:46;;;;;;;34.23;22.70;;;;;6.40;103006.00;;;;10405030;28;20186;-79
2022/01/22 14:45:11;;;;;;;37.27;23.97;;;;;6.30;103030.00;;;;10386818;28;20218;-79
2022/01/22 14:50:13;;;;;;;33.10;22.70;;;;;6.20;103030.00;;;;10371087;28;20324;-78
2022/01/22 14:55:15;;;;;;;32.30;22.50;;;;;6.20;103037.00;;;;10370707;28;20559;-78
2022/01/22 15:00:17;;;;;;;29.77;20.97;;;;;6.20;103037.00;;;;10370834;28;20203;-79
2022/01/22 15:05:19;;;;;;;33.17;22.43;;;;;6.10;103048.00;;;;10392843;28;20207;-78
2022/01/22 15:10:23;;;;;;;31.03;21.10;;;;;6.00;103041.00;;;;10359044;28;20222;-79
2022/01/22 15:15:31;;;;;;;29.77;19.37;;;;;6.00;103030.00;;;;10412666;28;20191;-78
2022/01/22 15:20:34;;;;;;;34.30;21.63;;;;;5.90;103025.00;;;;10384663;28;20214;-78
2022/01/22 15:25:35;;;;;;;30.33;18.77;;;;;5.90;103020.00;;;;10385872;28;20558;-78
2022/01/22 15:30:39;;;;;;;31.33;20.87;;;;;5.90;103022.00;;;;10399517;28;20195;-78
2022/01/22 15:35:42;;;;;;;33.53;21.30;;;;;5.80;103013.00;;;;10413922;28;20202;-78
2022/01/22 15:40:45;;;;;;;35.63;21.73;;;;;5.80;103006.00;;;;10385638;28;20206;-78
2022/01/22 15:45:47;;;;;;;34.07;22.13;;;;;5.80;103025.00;;;;10363570;28;20204;-78
2022/01/22 15:50:52;;;;;;;34.57;21.80;;;;;5.80;103019.00;;;;10395039;28;20625;-78
2022/01/22 15:55:56;;;;;;;32.47;21.30;;;;;5.80;103016.00;;;;10389882;28;20250;-78
2022/01/22 16:00:57;;;;;;;37.73;23.20;;;;;5.80;103013.00;;;;10377785;28;20221;-78
2022/01/22 16:06:08;;;;;;;36.73;23.27;;;;;5.80;103012.00;;;;10342430;28;20222;-78
2022/01/22 16:11:10;;;;;;;35.43;22.40;;;;;5.70;102995.00;;;;10379648;28;20294;-78
2022/01/22 16:16:33;;;;;;;41.87;23.87;;;;;5.70;103006.00;;;;10378843;28;20198;-78
2022/01/22 16:21:38;;;;;;;44.90;24.87;;;;;5.70;102996.00;;;;10398120;28;20218;-78
2022/01/22 16:26:41;;;;;;;41.97;24.97;;;;;5.70;102993.00;;;;10399826;28;20199;-78
2022/01/22 16:31:45;;;;;;;46.50;28.83;;;;;5.70;102998.00;;;;10416974;28;20666;-78
2022/01/22 16:36:47;;;;;;;48.53;30.97;;;;;5.70;103005.00;;;;10383206;28;20195;-78
2022/01/22 16:41:54;;;;;;;45.23;28.43;;;;;5.70;103015.00;;;;10392811;28;20674;-78
2022/01/22 16:57:32;;;;;;;36.23;24.90;;;;;5.70;103044.00;;;;10399088;28;20247;-78
2022/01/22 17:02:35;;;;;;;42.20;24.63;;;;;5.70;103035.00;;;;10398829;28;20211;-78
2022/01/22 17:07:58;;;;;;;37.97;23.13;;;;;5.70;103047.00;;;;10386427;28;20301;-78
2022/01/22 17:18:21;;;;;;;37.10;24.17;;;;;5.70;103050.00;;;;10358237;28;20206;-78
2022/01/22 17:23:23;;;;;;;42.97;27.23;;;;;5.70;103047.00;;;;10416197;28;20221;-78
2022/01/22 17:28:25;;;;;;;44.33;27.20;;;;;5.70;103050.00;;;;10390217;28;20195;-78
2022/01/22 17:33:26;;;;;;;44.10;28.33;;;;;5.70;103051.00;;;;10423554;28;20190;-78
2022/01/22 17:38:28;;;;;;;45.97;29.67;;;;;5.70;103059.00;;;;10433649;28;20198;-78
2022/01/22 17:43:34;;;;;;;41.47;27.50;;;;;5.70;103048.00;;;;10430809;28;20261;-78
2022/01/22 17:48:38;;;;;;;42.17;25.23;;;;;5.70;103033.00;;;;10447080;28;20604;-78
2022/01/22 17:53:41;;;;;;;37.60;25.57;;;;;5.70;103052.00;;;;10430235;28;20195;-78
2022/01/22 17:58:45;;;;;;;38.03;23.87;;;;;5.70;103052.00;;;;10443658;28;20229;-78
2022/01/22 18:03:50;;;;;;;43.63;27.43;;;;;5.70;103059.00;;;;10372679;28;20229;-78
2022/01/22 18:09:05;;;;;;;46.10;29.10;;;;;5.60;103057.00;;;;10404855;28;20250;-78
2022/01/22 18:14:10;;;;;;;44.63;28.70;;;;;5.60;103060.00;;;;10422046;28;20199;-78
2022/01/22 18:19:12;;;;;;;48.17;31.37;;;;;5.60;103054.00;;;;10421443;28;20209;-78
2022/01/22 18:24:15;;;;;;;43.40;26.30;;;;;5.60;103060.00;;;;10404694;28;20218;-78
2022/01/22 18:29:20;;;;;;;31.53;21.13;;;;;5.60;103052.00;;;;10387781;28;20619;-78
2022/01/22 18:34:26;;;;;;;32.50;20.20;;;;;5.60;103063.00;;;;10403536;28;20205;-78
2022/01/22 18:39:28;;;;;;;24.37;17.37;;;;;5.60;103061.00;;;;10387701;28;20202;-78
2022/01/22 18:44:30;;;;;;;35.80;24.10;;;;;5.60;103062.00;;;;10387788;28;20222;-78
2022/01/22 18:49:33;;;;;;;36.77;24.57;;;;;5.60;103064.00;;;;10386964;28;20199;-78
2022/01/22 18:54:36;;;;;;;32.00;21.23;;;;;5.60;103067.00;;;;10403933;28;20197;-78
2022/01/22 18:59:38;;;;;;;37.57;25.70;;;;;5.60;103057.00;;;;10420817;28;20662;-78
2022/01/22 19:04:40;;;;;;;40.10;27.27;;;;;5.60;103071.00;;;;10402958;28;20222;-78
2022/01/22 19:09:43;;;;;;;38.37;26.23;;;;;5.50;103078.00;;;;10419369;28;20226;-78
2022/01/22 19:14:45;;;;;;;41.83;25.07;;;;;5.50;103078.00;;;;10386141;28;20183;-78
2022/01/22 19:19:47;;;;;;;32.10;21.60;;;;;5.50;103080.00;;;;10402761;28;20195;-78
2022/01/22 19:25:02;;;;;;;36.40;23.27;;;;;5.60;103078.00;;;;10418858;28;20211;-78
2022/01/22 19:30:05;;;;;;;39.70;25.13;;;;;5.60;103076.00;;;;10401733;28;20204;-78
2022/01/22 19:35:07;;;;;;;36.57;24.27;;;;;5.60;103064.00;;;;10401844;28;20210;-78
2022/01/22 19:40:11;;;;;;;36.90;23.33;;;;;5.50;103061.00;;;;10361249;28;20207;-78
2022/01/22 19:45:13;;;;;;;33.00;22.53;;;;;5.50;103063.00;;;;10392210;28;20207;-78
2022/01/22 19:50:15;;;;;;;35.23;22.27;;;;;5.50;103068.00;;;;10405211;28;20198;-78
2022/01/22 19:55:17;;;;;;;36.23;22.20;;;;;5.50;103074.00;;;;10401141;28;20189;-78
2022/01/22 20:00:20;;;;;;;33.30;22.63;;;;;5.50;103082.00;;;;10354023;28;20616;-78
2022/01/22 20:05:22;;;;;;;33.03;21.93;;;;;5.50;103068.00;;;;10400291;28;20207;-78
2022/01/22 20:10:29;;;;;;;36.90;20.87;;;;;5.50;103058.00;;;;10386062;28;20223;-78
2022/01/22 20:15:32;;;;;;;33.93;21.60;;;;;5.50;103056.00;;;;10400235;28;20183;-78
2022/01/22 20:20:34;;;;;;;34.73;22.97;;;;;5.50;103047.00;;;;10416526;28;20245;-78
2022/01/22 20:25:56;;;;;;;36.13;22.17;;;;;5.40;103055.00;;;;10383434;28;20222;-78
2022/01/22 20:30:58;;;;;;;33.30;21.83;;;;;5.40;103060.00;;;;10432350;28;20218;-78
2022/01/22 20:36:01;;;;;;;34.13;20.70;;;;;5.40;103074.00;;;;10391357;28;20215;-78
2022/01/22 20:41:03;;;;;;;34.67;21.50;;;;;5.40;103069.00;;;;10405933;28;20202;-78
2022/01/22 20:46:26;;;;;;;31.23;20.73;;;;;5.40;103062.00;;;;10400130;28;20654;-77
2022/01/22 20:51:28;;;;;;;34.30;21.13;;;;;5.40;103058.00;;;;10399639;28;20252;-78
2022/01/22 20:56:30;;;;;;;40.00;23.90;;;;;5.40;103062.00;;;;10398931;28;20187;-78
2022/01/22 21:01:31;;;;;;;36.37;21.40;;;;;5.40;103069.00;;;;10398388;28;20206;-78
2022/01/22 21:06:53;;;;;;;36.00;22.17;;;;;5.40;103061.00;;;;10369336;28;20213;-78
2022/01/22 21:11:56;;;;;;;36.20;24.13;;;;;5.40;103060.00;;;;10415524;28;20190;-78
2022/01/22 21:16:58;;;;;;;31.97;21.10;;;;;5.40;103057.00;;;;10398808;28;20650;-78
2022/01/22 21:22:05;;;;;;;40.77;23.70;;;;;5.40;103063.00;;;;10382333;28;20209;-78
2022/01/22 21:27:07;;;;;;;39.17;23.27;;;;;5.40;103052.00;;;;10397744;28;20195;-78
2022/01/22 21:32:13;;;;;;;34.57;22.27;;;;;5.40;103046.00;;;;10375946;28;20219;-78
2022/01/22 21:42:41;;;;;;;35.83;22.53;;;;;5.40;103053.00;;;;10391981;28;20289;-78
2022/01/22 21:47:43;;;;;;;38.90;23.37;;;;;5.40;103047.00;;;;10365343;28;20670;-78
2022/01/22 21:52:45;;;;;;;42.87;24.23;;;;;5.40;103044.00;;;;10381409;28;20190;-78
2022/01/22 21:57:48;;;;;;;38.77;24.70;;;;;5.40;103044.00;;;;10397839;28;20207;-78
2022/01/22 22:02:51;;;;;;;37.30;23.87;;;;;5.40;103040.00;;;;10397692;28;20270;-78
2022/01/22 22:07:53;;;;;;;42.37;26.20;;;;;5.40;103047.00;;;;10376280;28;20243;-78
2022/01/22 22:12:55;;;;;;;43.23;26.77;;;;;5.40;103047.00;;;;10396862;28;20196;-78
2022/01/22 22:17:57;;;;;;;40.97;25.57;;;;;5.40;103040.00;;;;10364178;28;20196;-78
2022/01/22 22:22:59;;;;;;;41.50;25.23;;;;;5.40;103046.00;;;;10379829;28;20215;-78
2022/01/22 22:28:02;;;;;;;40.37;25.67;;;;;5.40;103038.00;;;;10396044;28;20678;-78
2022/01/22 22:33:07;;;;;;;41.87;24.77;;;;;5.40;103036.00;;;;10379631;28;20188;-78
2022/01/22 22:38:09;;;;;;;41.77;26.47;;;;;5.40;103044.00;;;;10428955;28;20566;-78
2022/01/22 22:43:11;;;;;;;43.33;27.53;;;;;5.40;103048.00;;;;10445000;28;20210;-78
2022/01/22 22:48:13;;;;;;;42.57;25.90;;;;;5.40;103039.00;;;;10432694;28;20210;-78
2022/01/22 22:53:15;;;;;;;41.93;26.53;;;;;5.40;103035.00;;;;10351301;28;20655;-78
2022/01/22 22:58:17;;;;;;;44.03;27.50;;;;;5.40;103040.00;;;;10364872;28;20194;-78
2022/01/22 23:03:22;;;;;;;47.80;26.77;;;;;5.40;103053.00;;;;10414046;28;20229;-78
2022/01/22 23:08:24;;;;;;;41.50;26.13;;;;;5.40;103055.00;;;;10415744;28;20223;-78
2022/01/22 23:13:29;;;;;;;42.17;26.23;;;;;5.40;103050.00;;;;10346237;28;20207;-78
2022/01/22 23:28:40;;;;;;;40.10;26.20;;;;;5.30;103050.00;;;;10398983;28;20195;-78
2022/01/22 23:33:51;;;;;;;39.33;25.23;;;;;5.30;103049.00;;;;10364063;28;20199;-78
2022/01/22 23:54:55;;;;;;;38.73;26.07;;;;;5.30;103038.00;;;;10388970;28;20187;-78
